Data for 02/24/2008

Time Sea-Level Adjusted Pressure Absolute Pressure Temperature Relative Humidity Dew Point   
(mb) (inHg) (mb) (inHg) (C) (F) (%) (C) (F)
00:05 1015 29.97 844 24.92 -1.6 29.1 58 -8.9 16
00:10 1015 29.97 844 24.92 -1.6 29.1 57 -9 15.8
00:15 1015 29.97 844 24.92 -1.5 29.2 57 -9 15.8
00:20 1015 29.97 844 24.92 -1.5 29.2 57 -9.1 15.7
00:25 1015 29.97 844 24.92 -1.6 29.2 57 -9.1 15.7
00:30 1015 29.97 844 24.92 -1.6 29.1 56 -9.2 15.5
00:35 1015 29.97 844 24.92 -1.5 29.4 56 -9.2 15.5
00:40 1015 29.97 844 24.92 -1.5 29.3 56 -9.2 15.4
00:45 1015 29.97 844 24.92 -1.5 29.3 56 -9.2 15.4
00:50 1015 29.97 844 24.92 -1.5 29.3 56 -9.2 15.4
00:55 1015 29.97 844 24.92 -1.5 29.3 56 -9.3 15.3
01:00 1015 29.97 844 24.92 -1.6 29.2 55 -9.4 15.1
01:05 1014 29.94 844 24.92 -1.6 29.1 56 -9.4 15.1
01:10 1014 29.94 843 24.89 -1.6 29.1 56 -9.4 15.1
01:15 1014 29.94 843 24.89 -1.6 29.1 56 -9.4 15.1
01:20 1014 29.94 843 24.89 -1.6 29.1 56 -9.4 15.2
01:25 1014 29.94 843 24.89 -1.8 28.7 56 -9.4 15
01:30 1014 29.94 843 24.89 -2 28.4 57 -9.4 15
01:35 1014 29.94 843 24.89 -2 28.3 57 -9.5 14.9
01:40 1014 29.94 843 24.89 -1.9 28.6 57 -9.4 15.1
01:45 1014 29.94 843 24.89 -1.8 28.8 56 -9.3 15.2
01:50 1014 29.94 843 24.89 -1.7 28.9 56 -9.4 15.2
01:55 1014 29.94 843 24.89 -1.7 29 56 -9.3 15.2
02:00 1014 29.94 843 24.89 -1.7 28.9 56 -9.3 15.2
02:05 1014 29.94 843 24.89 -1.7 29 56 -9.2 15.4
02:10 1014 29.94 843 24.89 -1.6 29.2 56 -9.2 15.4
02:15 1014 29.94 843 24.89 -1.5 29.3 56 -9.2 15.4
02:20 1014 29.94 843 24.89 -1.5 29.3 56 -9.2 15.5
02:25 1013 29.91 843 24.89 -1.7 28.9 57 -9.2 15.4
02:30 1013 29.91 843 24.89 -1.8 28.8 57 -9.2 15.4
02:35 1013 29.91 842 24.86 -1.7 28.9 57 -9.2 15.4
02:40 1013 29.91 842 24.86 -1.7 29 57 -9.2 15.4
02:45 1013 29.91 842 24.86 -1.6 29 56 -9.3 15.3
02:50 1013 29.91 842 24.86 -1.7 29 56 -9.3 15.3
02:55 1013 29.91 842 24.86 -1.8 28.8 57 -9.3 15.3
03:00 1013 29.91 842 24.86 -2.1 28.2 58 -9.3 15.2
03:05 1013 29.91 842 24.86 -2.3 27.9 58 -9.5 15
03:10 1013 29.91 842 24.86 -2.3 27.9 58 -9.4 15.1
03:15 1013 29.91 842 24.86 -2.3 27.9 58 -9.4 15.1
03:20 1013 29.91 842 24.86 -2.1 28.2 58 -9.3 15.2
03:25 1013 29.91 842 24.86 -1.9 28.5 58 -9.2 15.4
03:30 1013 29.91 842 24.86 -1.7 28.9 57 -9.1 15.6
03:35 1013 29.91 842 24.86 -1.6 29.2 57 -9.1 15.6
03:40 1013 29.91 842 24.86 -1.5 29.3 57 -9 15.8
03:45 1012 29.88 842 24.86 -1.5 29.4 56 -9 15.8
03:50 1012 29.88 842 24.86 -1.6 29 57 -9 15.7
03:55 1012 29.88 842 24.86 -1.8 28.8 58 -9.1 15.7
04:00 1012 29.88 842 24.86 -1.8 28.8 58 -9 15.8
04:05 1012 29.88 842 24.86 -1.7 28.9 58 -9 15.8
04:10 1012 29.88 842 24.86 -1.6 29.1 57 -9 15.9
04:15 1012 29.88 842 24.86 -1.4 29.5 57 -8.9 15.9
04:20 1012 29.88 842 24.86 -1.2 29.9 56 -8.9 15.9
04:25 1012 29.88 842 24.86 -1.2 29.8 56 -8.9 16.1
04:30 1012 29.88 842 24.86 -1.2 29.8 56 -8.9 16
04:35 1012 29.88 842 24.86 -1 30.1 55 -8.9 16
04:40 1012 29.88 841 24.83 -0.9 30.4 56 -8.7 16.3
04:45 1012 29.88 841 24.83 -0.8 30.5 55 -8.8 16.2
04:50 1012 29.88 841 24.83 -0.7 30.8 54 -8.8 16.2
04:55 1012 29.88 841 24.83 -0.6 30.9 54 -8.8 16.2
05:00 1012 29.88 841 24.83 -0.6 31 54 -8.8 16.1
05:05 1012 29.88 841 24.83 -0.4 31.2 53 -8.9 15.9
05:10 1012 29.88 841 24.83 -0.3 31.5 52 -8.9 16.1
05:15 1012 29.88 841 24.83 -0.2 31.7 52 -8.9 16.1
05:20 1012 29.88 841 24.83 -0.2 31.7 52 -8.8 16.1
05:25 1012 29.88 841 24.83 -0.2 31.6 52 -8.9 16
05:30 1012 29.88 841 24.83 -0.2 31.7 52 -8.8 16.2
05:35 1012 29.88 841 24.83 -0.1 31.8 53 -8.7 16.4
05:40 1011 29.85 841 24.83 -0 32 52 -8.6 16.5
05:45 1012 29.88 841 24.83 0 32.1 53 -8.5 16.6
05:50 1011 29.85 841 24.83 0 32 54 -8.3 17
05:55 1011 29.85 841 24.83 0 32 54 -8.3 17.1
06:00 1011 29.85 841 24.83 0.1 32.2 54 -8.2 17.2
06:05 1011 29.85 841 24.83 0.1 32.2 54 -8.1 17.5
06:10 1011 29.85 841 24.83 0 32.1 56 -7.8 17.9
06:15 1011 29.85 841 24.83 0 32.1 57 -7.5 18.4
06:20 1011 29.85 841 24.83 0.1 32.1 56 -7.6 18.2
06:25 1011 29.85 841 24.83 0.1 32.1 56 -7.8 18
06:30 1011 29.85 841 24.83 -0 32 57 -7.6 18.3
06:35 1011 29.85 841 24.83 -0.1 31.8 58 -7.3 18.8
06:40 1011 29.85 841 24.83 0 32.1 59 -7 19.4
06:45 1011 29.85 841 24.83 0.2 32.3 60 -6.7 20
06:50 1011 29.85 841 24.83 0.3 32.5 61 -6.5 20.3
06:55 1011 29.85 841 24.83 0.2 32.4 60 -6.6 20.1
07:00 1011 29.85 840 24.81 0 32.1 61 -6.7 20
07:05 1011 29.85 840 24.81 -0.2 31.6 62 -6.6 20.2
07:10 1011 29.85 840 24.81 -0.3 31.4 63 -6.5 20.4
07:15 1011 29.85 840 24.81 -0.3 31.5 64 -6.4 20.5
07:20 1011 29.85 840 24.81 -0.3 31.5 64 -6.3 20.7
07:25 1011 29.85 840 24.81 -0.2 31.6 64 -6.2 20.8
07:30 1011 29.85 840 24.81 -0.4 31.2 65 -6.2 20.8
07:35 1011 29.85 840 24.81 -0.7 30.7 66 -6.3 20.7
07:40 1011 29.85 840 24.81 -0.9 30.3 67 -6.3 20.7
07:45 1011 29.85 840 24.81 -1.3 29.7 69 -6.3 20.7
07:50 1011 29.85 840 24.81 -1.3 29.6 69 -6.2 20.8
07:55 1011 29.85 840 24.81 -1.3 29.6 70 -6.1 21.1
08:00 1011 29.85 840 24.81 -1.4 29.5 70 -6.1 21
08:05 1011 29.85 840 24.81 -1.5 29.4 71 -6.1 21
08:10 1011 29.85 840 24.81 -1.5 29.3 71 -6 21.2
08:15 1011 29.85 840 24.81 -1.3 29.6 72 -5.8 21.6
08:20 1011 29.85 840 24.81 -1.2 29.8 73 -5.4 22.3
08:25 1011 29.85 840 24.81 -1.1 30.1 76 -4.8 23.4
08:30 1011 29.85 840 24.81 -0.8 30.5 77 -4.4 24.1
08:35 1011 29.85 840 24.81 -0.6 30.9 77 -4.2 24.4
08:40 1011 29.85 840 24.81 -0.5 31.1 77 -4.1 24.6
08:45 1011 29.85 840 24.81 -0.4 31.2 77 -4.1 24.7
08:50 1010 29.83 840 24.81 -0.4 31.4 77 -3.9 24.9
08:55 1010 29.83 840 24.81 -0.3 31.4 77 -3.9 25
09:00 1010 29.83 840 24.81 -0.3 31.4 77 -3.9 25.1
09:05 1010 29.83 839 24.78 -0.3 31.5 77 -3.8 25.2
09:10 1010 29.83 839 24.78 -0.2 31.6 77 -3.8 25.2
09:15 1010 29.83 839 24.78 -0.2 31.7 77 -3.8 25.2
09:20 1010 29.83 839 24.78 -0.1 31.7 76 -3.8 25.2
09:25 1010 29.83 839 24.78 -0.1 31.8 76 -3.8 25.2
09:30 1010 29.83 839 24.78 0 32 76 -3.8 25.2
09:35 1010 29.83 839 24.78 0.1 32.2 75 -3.8 25.1
09:40 1010 29.83 839 24.78 0.2 32.4 74 -3.8 25.1
09:45 1010 29.83 839 24.78 0.2 32.4 74 -3.8 25.1
09:50 1010 29.83 839 24.78 0.3 32.5 74 -3.8 25.2
09:55 1010 29.83 839 24.78 0.4 32.7 74 -3.8 25.2
10:00 1010 29.83 839 24.78 0.5 32.8 74 -3.7 25.3
10:05 1010 29.83 839 24.78 0.6 33 74 -3.6 25.5
10:10 1010 29.83 839 24.78 0.7 33.2 73 -3.6 25.6
10:15 1010 29.83 839 24.78 0.8 33.4 73 -3.6 25.6
10:20 1010 29.83 839 24.78 1 33.9 72 -3.5 25.6
10:25 1010 29.83 839 24.78 0.9 33.6 72 -3.7 25.4
10:30 1010 29.83 839 24.78 0.9 33.6 72 -3.6 25.5
10:35 1010 29.83 839 24.78 1.1 34 71 -3.5 25.7
10:40 1010 29.83 839 24.78 1.4 34.5 69 -3.7 25.4
10:45 1010 29.83 839 24.78 1.2 34.1 70 -3.7 25.4
10:50 1010 29.83 839 24.78 1 33.8 72 -3.5 25.6
10:55 1010 29.83 839 24.78 0.4 32.8 75 -3.5 25.8
11:00 1010 29.83 839 24.78 0.1 32.1 77 -3.5 25.6
11:05 1010 29.83 839 24.78 0.5 32.8 77 -3.1 26.3
11:10 1010 29.83 839 24.78 1.2 34.2 75 -2.7 27.1
11:15 1010 29.83 839 24.78 1.3 34.4 75 -2.7 27.1
11:20 1010 29.83 839 24.78 0.9 33.6 76 -2.9 26.8
11:25 1010 29.83 839 24.78 0.9 33.7 76 -2.8 27
11:30 1010 29.83 839 24.78 1.1 34 76 -2.6 27.3
11:35 1010 29.83 839 24.78 1.4 34.5 76 -2.4 27.6
11:40 1010 29.83 839 24.78 1.7 35.1 74 -2.4 27.7
11:45 1010 29.83 839 24.78 1.5 34.7 75 -2.4 27.6
11:50 1010 29.83 839 24.78 1.2 34.1 76 -2.6 27.4
11:55 1010 29.83 839 24.78 1 33.8 78 -2.4 27.6
12:00 1010 29.83 839 24.78 1.8 35.2 75 -2.1 28.2
12:05 1010 29.83 839 24.78 1.9 35.4 75 -2.1 28.2
12:10 1010 29.83 839 24.78 1.9 35.5 74 -2.2 28.1
12:15 1010 29.83 839 24.78 1.5 34.7 75 -2.4 27.7
12:20 1010 29.83 839 24.78 0.9 33.7 77 -2.6 27.3
12:25 1009 29.8 839 24.78 1 33.8 77 -2.6 27.4
12:30 1010 29.83 839 24.78 1 33.8 77 -2.5 27.5
12:35 1010 29.83 839 24.78 1 33.9 78 -2.4 27.6
12:40 1010 29.83 839 24.78 1 33.8 78 -2.4 27.6
12:45 1010 29.83 839 24.78 1.1 34 78 -2.4 27.8
12:50 1010 29.83 839 24.78 1.1 33.9 78 -2.3 27.9
12:55 1009 29.8 839 24.78 1.1 34.1 79 -2.2 28.1
13:00 1009 29.8 839 24.78 1.4 34.6 77 -2.1 28.2
13:05 1010 29.83 839 24.78 1.3 34.3 78 -2.2 28.1
13:10 1009 29.8 839 24.78 1.3 34.3 78 -2.2 28
13:15 1009 29.8 839 24.78 1.1 34 79 -2.1 28.2
13:20 1009 29.8 839 24.78 1.1 34.1 79 -2 28.3
13:25 1009 29.8 839 24.78 1.1 34 80 -2 28.4
13:30 1009 29.8 839 24.78 1.8 35.3 77 -1.7 28.9
13:35 1010 29.83 839 24.78 2.1 35.8 76 -1.6 29.1
13:40 1010 29.83 839 24.78 2 35.7 76 -1.7 28.9
13:45 1009 29.8 839 24.78 2.3 36.1 75 -1.7 28.9
13:50 1009 29.8 839 24.78 1.6 34.9 78 -1.9 28.6
13:55 1009 29.8 839 24.78 1.4 34.5 78 -2 28.4
14:00 1009 29.8 839 24.78 1.9 35.4 77 -1.7 29
14:05 1009 29.8 839 24.78 1.7 35 78 -1.7 28.9
14:10 1009 29.8 838 24.75 1.8 35.2 77 -1.9 28.6
14:15 1009 29.8 838 24.75 1.3 34.4 80 -1.8 28.7
14:20 1009 29.8 838 24.75 1.8 35.2 78 -1.6 29.1
14:25 1009 29.8 838 24.75 1.7 35 79 -1.6 29.1
14:30 1009 29.8 838 24.75 1.6 34.9 79 -1.7 28.9
14:35 1009 29.8 838 24.75 1.3 34.3 80 -1.8 28.8
14:40 1009 29.8 838 24.75 1.9 35.4 79 -1.3 29.7
14:45 1009 29.8 838 24.75 2.4 36.3 78 -1.1 30
14:50 1009 29.8 838 24.75 2.5 36.5 78 -1 30.3
14:55 1009 29.8 838 24.75 3 37.5 75 -1 30.2
15:00 1009 29.8 838 24.75 3.1 37.6 74 -1 30.1
15:05 1009 29.8 838 24.75 2.9 37.1 75 -1.2 29.9
15:10 1009 29.8 838 24.75 2.8 37 75 -1.3 29.7
15:15 1009 29.8 838 24.75 2.9 37.2 74 -1.3 29.7
15:20 1009 29.8 838 24.75 2.5 36.5 75 -1.5 29.3
15:25 1009 29.8 838 24.75 1.9 35.4 77 -1.7 28.9
15:30 1009 29.8 838 24.75 1.9 35.4 78 -1.6 29.1
15:35 1009 29.8 838 24.75 1.5 34.7 79 -1.8 28.7
15:40 1009 29.8 838 24.75 1.3 34.4 80 -1.8 28.8
15:45 1009 29.8 838 24.75 1.4 34.4 80 -1.7 29
15:50 1009 29.8 838 24.75 1.5 34.7 80 -1.6 29.1
15:55 1009 29.8 838 24.75 1.5 34.7 80 -1.6 29.2
16:00 1009 29.8 838 24.75 1.5 34.7 80 -1.5 29.3
16:05 1009 29.8 839 24.78 1.5 34.7 80 -1.6 29.2
16:10 1009 29.8 839 24.78 1.3 34.3 81 -1.6 29.1
16:15 1009 29.8 839 24.78 1 33.8 82 -1.8 28.8
16:20 1009 29.8 839 24.78 0.7 33.2 83 -1.9 28.5
16:25 1009 29.8 839 24.78 0.7 33.3 83 -1.8 28.7
16:30 1010 29.83 839 24.78 0.6 33.2 84 -1.8 28.8
16:35 1010 29.83 839 24.78 0.7 33.2 84 -1.8 28.8
16:40 1010 29.83 839 24.78 0.8 33.4 84 -1.6 29.1
16:45 1010 29.83 839 24.78 1.2 34.1 83 -1.3 29.6
16:50 1010 29.83 839 24.78 1.3 34.4 83 -1.3 29.7
16:55 1010 29.83 839 24.78 1.3 34.4 82 -1.4 29.6
17:00 1010 29.83 839 24.78 1.4 34.4 82 -1.4 29.5
17:05 1010 29.83 839 24.78 1.4 34.5 82 -1.4 29.6
17:10 1010 29.83 840 24.81 1.4 34.6 82 -1.3 29.6
17:15 1010 29.83 840 24.81 1.5 34.8 81 -1.3 29.6
17:20 1010 29.83 840 24.81 1.5 34.8 81 -1.3 29.6
17:25 1011 29.85 840 24.81 1.5 34.7 81 -1.4 29.5
17:30 1011 29.85 840 24.81 1.5 34.7 81 -1.3 29.6
17:35 1011 29.85 840 24.81 1.5 34.7 81 -1.3 29.6
17:40 1011 29.85 840 24.81 1.5 34.6 82 -1.4 29.5
17:45 1011 29.85 840 24.81 1.2 34.1 82 -1.5 29.3
17:50 1011 29.85 840 24.81 1 33.8 83 -1.5 29.3
17:55 1011 29.85 840 24.81 0.9 33.6 84 -1.5 29.3
18:00 1011 29.85 840 24.81 0.6 33.1 86 -1.5 29.2
18:05 1011 29.85 840 24.81 0.4 32.8 87 -1.5 29.3
18:10 1011 29.85 840 24.81 0.3 32.6 88 -1.5 29.3
18:15 1011 29.85 840 24.81 0.3 32.6 88 -1.4 29.5
18:20 1011 29.85 840 24.81 0.4 32.8 88 -1.3 29.7
18:25 1011 29.85 840 24.81 0.5 33 89 -1.1 30
18:30 1011 29.85 840 24.81 0.7 33.2 88 -1.1 30.1
18:35 1011 29.85 840 24.81 0.3 32.6 89 -1.3 29.7
18:40 1011 29.85 840 24.81 0.2 32.3 89 -1.3 29.6
18:45 1011 29.85 840 24.81 0.1 32.2 90 -1.4 29.6
18:50 1011 29.85 840 24.81 0.1 32.1 90 -1.4 29.5
18:55 1011 29.85 840 24.81 0 32 164 7 44.5
19:00 1011 29.85 841 24.83 0 32.1 164 7 44.6
19:05 1011 29.85 841 24.83 0 32.1 164 7 44.6
19:10 1011 29.85 841 24.83 0.2 32.3 164 7.2 44.9
19:15 1012 29.88 841 24.83 0.4 32.7 164 7.4 45.3
19:20 1012 29.88 841 24.83 0.6 33.1 164 7.6 45.7
19:25 1012 29.88 841 24.83 0.6 33.1 164 7.6 45.7
19:30 1012 29.88 841 24.83 0.7 33.2 164 7.7 45.8
19:35 1012 29.88 841 24.83 0.7 33.2 164 7.7 45.9
19:40 1012 29.88 841 24.83 0.6 33.1 164 7.6 45.8
19:45 1012 29.88 841 24.83 0.6 33 164 7.6 45.6
19:50 1012 29.88 841 24.83 0.6 33.1 164 7.6 45.7
19:55 1012 29.88 841 24.83 0.6 33.1 164 7.6 45.8
20:00 1012 29.88 841 24.83 0.6 33.2 164 7.7 45.8
20:05 1012 29.88 841 24.83 0.6 33.2 164 7.6 45.8
20:10 1012 29.88 841 24.83 0.8 33.4 164 7.8 46
20:15 1012 29.88 842 24.86 0.8 33.4 164 7.8 46
20:20 1012 29.88 842 24.86 0.8 33.5 164 7.8 46.1
20:25 1012 29.88 842 24.86 0.8 33.5 164 7.9 46.2
20:30 1012 29.88 842 24.86 0.8 33.4 164 7.8 46
20:35 1012 29.88 842 24.86 0.7 33.2 164 7.7 45.9
20:40 1013 29.91 842 24.86 0.6 33.1 164 7.6 45.8
20:45 1013 29.91 842 24.86 0.6 33.1 164 7.6 45.7
20:50 1013 29.91 842 24.86 0.6 33.1 164 7.6 45.7
20:55 1013 29.91 842 24.86 0.6 33.2 164 7.7 45.8
21:00 1013 29.91 842 24.86 0.6 33 164 7.6 45.7
21:05 1013 29.91 842 24.86 0.5 32.9 164 7.5 45.5
21:10 1013 29.91 842 24.86 0.5 33 164 7.5 45.6
21:15 1013 29.91 842 24.86 0.5 32.9 164 7.5 45.6
21:20 1013 29.91 842 24.86 0.5 32.9 164 7.5 45.5
21:25 1013 29.91 842 24.86 0.5 32.8 164 7.5 45.4
21:30 1013 29.91 842 24.86 0.5 32.8 164 7.5 45.4
21:35 1013 29.91 842 24.86 0.4 32.8 164 7.5 45.4
21:40 1013 29.91 842 24.86 0.4 32.7 164 7.4 45.4
21:45 1013 29.91 842 24.86 0.3 32.6 164 7.3 45.2
21:50 1013 29.91 843 24.89 0.3 32.5 164 7.3 45.1
21:55 1013 29.91 843 24.89 0.3 32.5 164 7.3 45.1
22:00 1013 29.91 843 24.89 0.2 32.4 164 7.2 45
22:05 1014 29.94 843 24.89 0.2 32.3 164 7.2 44.9
22:10 1014 29.94 843 24.89 0.1 32.3 164 7.1 44.9
22:15 1014 29.94 843 24.89 0.1 32.2 164 7.1 44.8
22:20 1014 29.94 843 24.89 0.2 32.3 164 7.2 44.9
22:25 1014 29.94 843 24.89 0.2 32.3 164 7.2 44.9
22:30 1014 29.94 843 24.89 0.2 32.4 164 7.2 44.9
22:35 1014 29.94 843 24.89 0.2 32.4 164 7.2 45
22:40 1014 29.94 843 24.89 0.2 32.4 164 7.2 45
22:45 1014 29.94 843 24.89 0.2 32.4 164 7.2 45
22:50 1014 29.94 843 24.89 0.2 32.4 164 7.2 45
22:55 1014 29.94 843 24.89 0.2 32.4 164 7.2 45
23:00 1014 29.94 843 24.89 0.2 32.3 164 7.2 44.9
23:05 1014 29.94 843 24.89 0.1 32.1 164 7.1 44.7
23:10 1014 29.94 843 24.89 0 32.1 164 7 44.7
23:15 1014 29.94 843 24.89 0.1 32.1 164 7.1 44.7
23:20 1014 29.94 843 24.89 0 32 164 7 44.6
23:25 1014 29.94 843 24.89 -0 32 164 7 44.6
23:30 1014 29.94 843 24.89 -0.1 31.8 164 6.9 44.4
23:35 1014 29.94 844 24.92 -0.2 31.6 164 6.7 44.1
23:40 1014 29.94 844 24.92 -0.2 31.7 164 6.8 44.3
23:45 1014 29.94 844 24.92 -0 32 164 7 44.6
23:50 1015 29.97 844 24.92 -0 32 164 7 44.6
23:55 1015 29.97 844 24.92 -0.1 31.8 164 6.9 44.3
24:00 1015 29.97 844 24.92 -0.1 31.8 164 6.9 44.3